Flight Track Log - Related Links

Times and Time Zones

All times are in EDT time to prevent confusion due to time zone crossing. See the N401NS flight status page for this flight to view local times or setup timezone preferences in your user account.

Time Position Orientation Groundspeed Altitude Reporting Facility
EDT Latitude Longitude Course Direction KTS MPH feet Rate Location/Type
Thu 01:09:21 PM 31.1756 -81.5061 332° Northwest 266 306 7,600  Level Jacksonville Center
Thu 01:10:21 PM 31.2261 -81.5369 332° Northwest 186 214 10,900 1,650 Climbing Jacksonville Center
Thu 01:11:21 PM 31.2892 -81.5725 334° Northwest 231 266 10,900 -250 Level Jacksonville Center
Thu 01:12:21 PM 31.3439 -81.6422 313° West 280 322 10,400 -150 Descending Jacksonville Center
Thu 01:13:21 PM 31.3947 -81.7144 310° West 297 342 10,600 50 Climbing Jacksonville Center
Thu 01:14:21 PM 31.4497 -81.7819 314° West 291 335 10,500 -100 Descending Jacksonville Center
Thu 01:15:21 PM 31.4961 -81.8447 311° West 280 322 10,400  Descending Jacksonville Center
Thu 01:16:21 PM 31.5531 -81.9197 312° West 280 322 10,500 100 Climbing Jacksonville Center
Thu 01:17:21 PM 31.6100 -81.9828 317° Northwest 280 322 10,600 50 Climbing Jacksonville Center
Thu 01:18:21 PM 31.6606 -82.0408 316° Northwest 280 322 10,600 -50 Level Jacksonville Center
Thu 01:19:21 PM 31.7217 -82.1208 312° West 294 338 10,500 -50 Descending Jacksonville Center
Thu 01:20:21 PM 31.7700 -82.1839 312° West 293 337 10,500  Level Jacksonville Center
Thu 01:21:21 PM 31.8267 -82.2642 310° West 293 337 10,500  Level Jacksonville Center
Thu 01:22:21 PM 31.8750 -82.3275 312° West 293 337 10,500  Level Jacksonville Center
Thu 01:23:21 PM 31.9317 -82.3981 313° West 293 337 10,500  Level Jacksonville Center
Thu 01:24:21 PM 31.9864 -82.4689 312° West 293 337 10,500  Level Jacksonville Center
Thu 01:25:21 PM 32.0386 -82.5422 310° West 293 337 10,500 50 Level Jacksonville Center
Thu 01:26:21 PM 32.0911 -82.6156 310° West 293 337 10,600  Climbing Jacksonville Center
Thu 01:27:21 PM 32.1475 -82.6889 312° West 293 337 10,500  Descending Jacksonville Center
Thu 01:28:21 PM 32.2042 -82.7625 312° West 293 337 10,600  Climbing Jacksonville Center
Thu 01:29:41 PM 32.2794 -82.8669 310° West 304 350 10,500 -43 Descending Atlanta Center
Thu 01:30:41 PM 32.3325 -82.9400 311° West 304 350 10,500 50 Level Atlanta Center
Thu 01:31:41 PM 32.3894 -83.0083 315° West 299 344 10,600 -50 Climbing Atlanta Center
Thu 01:32:41 PM 32.4422 -83.0839 310° West 299 344 10,400  Descending Atlanta Center
Thu 01:33:41 PM 32.4886 -83.1597 306° West 293 337 10,600 50 Climbing Atlanta Center
Thu 01:34:41 PM 32.5456 -83.2331 313° West 293 337 10,500 -50 Descending Atlanta Center
Thu 01:35:41 PM 32.5961 -83.3017 311° West 293 337 10,500  Level Atlanta Center
Thu 01:36:41 PM 32.6528 -83.3728 313° West 288 331 10,500  Level Atlanta Center
Thu 01:37:41 PM 32.7033 -83.4514 307° West 293 337 10,500 50 Level Atlanta Center
Thu 01:38:41 PM 32.7517 -83.5250 308° West 293 337 10,600 -450 Climbing Atlanta Center
Thu 01:39:41 PM 32.8083 -83.5964 313° West 293 337 9,600 -1,350 Descending Atlanta Center
Thu 01:40:41 PM 32.8647 -83.6581 317° Northwest 293 337 7,900 -1,500 Descending Atlanta Center
Thu 01:41:41 PM 32.9192 -83.7244 314° West 280 322 6,600 -1,200 Descending Atlanta Center
Thu 01:42:41 PM 32.9694 -83.7889 313° West 275 316 5,500 -950 Descending Atlanta Center
Thu 01:43:41 PM 33.0175 -83.8506 313° West 258 297 4,700 -450 Descending Atlanta Center
Thu 01:44:41 PM 33.0636 -83.9050 315° West 253 291 4,600 -50 Descending Atlanta Center
Thu 01:45:41 PM 33.1011 -83.9569 311° West 217 250 4,600  Level Atlanta Center
Thu 01:46:41 PM 33.1389 -83.9992 317° Northwest 210 242 4,600  Level Atlanta Center
Thu 01:47:41 PM 33.1806 -84.0511 314° West 215 247 4,600 -50 Level Atlanta Center
Thu 01:48:41 PM 33.2222 -84.1083 311° West 215 247 4,500 -36 Descending Atlanta Center
Thu 01:50:30 PM 33.3000 -84.2167 311° West 223 257 4,500  Level Atlanta TRACON
Thu 01:51:30 PM 33.3333 -84.2667 309° West 217 250 4,500 53 Level Atlanta TRACON
Thu 01:52:24 PM 33.3833 -84.3167 320° Northwest 221 254 4,600  Climbing Atlanta TRACON
Thu 01:53:24 PM 33.4167 -84.3667 309° West 228 262 4,500  Descending Atlanta TRACON
Thu 01:54:24 PM 33.4667 -84.4167 320° Northwest 224 258 4,600  Climbing Atlanta TRACON
Thu 01:55:24 PM 33.5333 -84.4500 337° Northwest 232 267 4,500  Descending Atlanta TRACON
Thu 01:56:30 PM 33.6000 -84.4500 360° North 231 266 4,600  Climbing Atlanta TRACON
Thu 01:57:30 PM 33.6667 -84.4500 360° North 235 270 4,500 -50 Descending Atlanta TRACON
Thu 01:58:30 PM 33.7167 -84.4500 360° North 232 267 4,500 -750 Level Atlanta TRACON
Thu 01:59:30 PM 33.7833 -84.4500 360° North 195 224 3,000 -1,211 Descending Atlanta TRACON
Thu 02:00:24 PM 33.8000 -84.5000 292° West 162 186 2,200 -500 Descending Atlanta TRACON
Thu 02:01:30 PM 33.8000 -84.5500 270° West 134 154 2,000 -286 Descending Atlanta TRACON
Thu 02:02:30 PM 33.7833 -84.5500 180° South 126 145 1,600 -400 Descending Atlanta TRACON
Thu 02:04:00 PM 33.7791 -84.5214 121° Southeast  Level Estimated
Thu 02:11:00 PM 33.7791 -84.5214 121° Southeast  Level Estimated
Thu 02:12:00 PM 33.7791 -84.5214 121° Southeast  Level Estimated
Thu 02:13:00 PM 33.7791 -84.5214 121° Southeast  Level Estimated
Thu 02:14:00 PM 33.7791 -84.5214 121° Southeast  Level Estimated
Thu 02:15:00 PM 33.7791 -84.5214 121° Southeast  Level Estimated
Thu 02:16:00 PM 33.7791 -84.5214 121° Southeast  Level Estimated
Thu 02:17:00 PM 33.7791 -84.5214 121° Southeast  Level Estimated
Thu 02:18:00 PM 33.7791 -84.5214 121° Southeast  Level Estimated

Login

Don't have an account? Register now (free) for customized features, flight alerts, and more!